Time;durP1;ratioP1;P1;durP2;ratioP2;P2;SDS_P1;SDS_P2;PMS_P1;PMS_P2;Temp;Humidity;BMP_temperature;BMP_pressure;BME280_temperature;BME280_humidity;BME280_pressure;Samples;Min_cycle;Max_cycle;Signal;HPM_P1;HPM_P2
2022/01/21 00:01:15;;;;;;;1.43;1.10;;;0.40;99.90;;;;;;4975654;28;20496;-48
2022/01/21 00:03:44;;;;;;;12.43;2.13;;;0.40;99.90;;;;;;4975694;28;20444;-53
2022/01/21 00:06:13;;;;;;;1.57;0.77;;;0.40;99.90;;;;;;4976187;28;20452;-54
2022/01/21 00:08:41;;;;;;;1.37;1.27;;;0.40;99.90;;;;;;4979356;28;20464;-52
2022/01/21 00:11:08;;;;;;;0.80;0.50;;;0.40;99.90;;;;;;4978804;28;20459;-49
2022/01/21 00:13:38;;;;;;;1.40;1.03;;;0.40;99.90;;;;;;4978884;28;20490;-51
2022/01/21 00:16:07;;;;;;;3.83;1.20;;;0.30;99.90;;;;;;4978740;28;20421;-57
2022/01/21 00:18:37;;;;;;;2.40;1.43;;;0.30;99.90;;;;;;4978950;28;20511;-57
2022/01/21 00:32:02;;;;;;;1.23;0.70;;;0.50;99.90;;;;;;4978400;29;20487;-55
2022/01/21 00:34:30;;;;;;;1.00;0.80;;;0.40;99.90;;;;;;4978546;28;20456;-54
2022/01/21 00:36:57;;;;;;;0.90;0.70;;;0.30;99.90;;;;;;4978026;28;20453;-54
2022/01/21 00:39:27;;;;;;;1.57;1.23;;;0.40;99.90;;;;;;4978633;28;20437;-53
2022/01/21 00:42:00;;;;;;;7.43;1.20;;;0.40;99.90;;;;;;4978540;28;20471;-54
2022/01/21 00:44:28;;;;;;;0.80;0.50;;;0.40;99.90;;;;;;4977721;28;20464;-56
2022/01/21 00:46:54;;;;;;;1.77;1.07;;;0.40;99.90;;;;;;4978236;28;20427;-57
2022/01/21 00:49:21;;;;;;;8.33;1.10;;;0.40;99.90;;;;;;4978128;28;20500;-57
2022/01/21 00:51:49;;;;;;;0.83;0.57;;;0.40;99.90;;;;;;4978399;28;20440;-56
2022/01/21 00:54:16;;;;;;;2.63;1.10;;;0.30;99.90;;;;;;4978109;28;20480;-57
2022/01/21 00:56:43;;;;;;;0.80;0.50;;;0.40;99.90;;;;;;4978771;28;20476;-57
2022/01/21 00:59:10;;;;;;;0.80;0.50;;;0.30;99.90;;;;;;4978978;28;20448;-57
2022/01/21 01:01:37;;;;;;;1.27;1.00;;;0.30;99.90;;;;;;4978163;28;20519;-49
2022/01/21 01:04:05;;;;;;;2.60;0.87;;;0.30;99.90;;;;;;4978234;28;20464;-56
2022/01/21 01:06:32;;;;;;;1.00;0.80;;;0.30;99.90;;;;;;4977981;28;20483;-55
2022/01/21 01:09:02;;;;;;;1.00;0.60;;;0.30;99.90;;;;;;4977948;28;20455;-52
2022/01/21 01:11:43;;;;;;;7.60;0.93;;;0.30;99.90;;;;;;4978325;28;20491;-55
2022/01/21 01:19:57;;;;;;;1.00;0.60;;;0.20;99.90;;;;;;4978935;29;20411;-54
2022/01/21 01:22:30;;;;;;;1.53;0.90;;;0.20;99.90;;;;;;4978317;28;20485;-55
2022/01/21 01:27:44;;;;;;;1.10;0.87;;;0.20;99.90;;;;;;4977963;29;20406;-55
2022/01/21 01:30:14;;;;;;;4.40;0.70;;;0.20;99.90;;;;;;4978058;28;20459;-55
2022/01/21 01:32:42;;;;;;;0.90;0.70;;;0.20;99.90;;;;;;4977730;28;20492;-57
2022/01/21 01:35:10;;;;;;;1.77;0.73;;;0.20;99.90;;;;;;4977830;28;20480;-56
2022/01/21 01:37:58;;;;;;;1.00;0.80;;;0.30;99.90;;;;;;4977204;28;20452;-56
2022/01/21 01:40:32;;;;;;;3.43;0.97;;;0.20;99.90;;;;;;4977494;28;21065;-55
2022/01/21 01:51:17;;;;;;;3.23;1.20;;;0.20;99.90;;;;;;4977365;28;20950;-54
2022/01/21 01:53:47;;;;;;;0.80;0.60;;;0.10;99.90;;;;;;4977084;28;20524;-55
2022/01/21 01:56:19;;;;;;;1.40;0.90;;;0.10;99.90;;;;;;4976557;28;20475;-50
2022/01/21 01:58:46;;;;;;;2.20;0.80;;;0.20;99.90;;;;;;4977106;28;20466;-54
2022/01/21 02:01:13;;;;;;;1.50;1.03;;;0.20;99.90;;;;;;4976874;28;20484;-54
2022/01/21 02:03:42;;;;;;;1.23;1.13;;;0.20;99.90;;;;;;4976551;28;20483;-55
2022/01/21 02:06:09;;;;;;;1.17;0.77;;;0.20;99.90;;;;;;4976851;28;20460;-54
2022/01/21 02:08:36;;;;;;;0.80;0.60;;;0.20;99.90;;;;;;4976449;28;20502;-56
2022/01/21 02:11:03;;;;;;;0.80;0.60;;;0.30;99.90;;;;;;4976554;28;20928;-55
2022/01/21 02:13:41;;;;;;;0.80;0.60;;;0.30;99.90;;;;;;4976758;28;20468;-58
2022/01/21 02:16:11;;;;;;;0.80;0.60;;;0.30;99.90;;;;;;4976746;28;20486;-55
2022/01/21 02:21:42;;;;;;;3.53;1.17;;;0.30;99.90;;;;;;4976155;29;21025;-53
2022/01/21 02:24:14;;;;;;;0.90;0.63;;;0.20;99.90;;;;;;4976476;28;20431;-53
2022/01/21 02:26:41;;;;;;;0.80;0.50;;;0.30;99.90;;;;;;4976942;28;21063;-55
2022/01/21 02:29:12;;;;;;;1.00;0.60;;;0.20;99.90;;;;;;4976146;28;20424;-54
2022/01/21 02:31:40;;;;;;;1.00;0.70;;;0.20;99.90;;;;;;4975845;28;20471;-54
2022/01/21 02:34:09;;;;;;;2.70;0.97;;;0.20;99.90;;;;;;4976413;28;20456;-55
2022/01/21 02:36:37;;;;;;;0.90;0.60;;;0.30;99.90;;;;;;4976619;28;20444;-54
2022/01/21 02:39:05;;;;;;;1.13;0.70;;;0.30;99.90;;;;;;4976064;28;20468;-51
2022/01/21 02:41:31;;;;;;;0.80;0.50;;;0.20;99.90;;;;;;4976380;28;20457;-50
2022/01/21 02:43:58;;;;;;;1.40;0.70;;;0.20;99.90;;;;;;4976235;29;20507;-53
2022/01/21 02:46:27;;;;;;;1.57;0.90;;;0.20;99.90;;;;;;4976131;28;20480;-53
2022/01/21 02:48:54;;;;;;;1.10;1.00;;;0.10;99.90;;;;;;4976538;28;20448;-58
2022/01/21 02:51:23;;;;;;;1.23;1.00;;;0.00;99.90;;;;;;4976999;28;20508;-57
2022/01/21 02:54:04;;;;;;;0.80;0.60;;;0.00;99.90;;;;;;4976265;28;20451;-55
2022/01/21 02:56:35;;;;;;;1.37;1.27;;;0.00;99.90;;;;;;4976581;28;20439;-50
2022/01/21 02:59:07;;;;;;;3.27;0.80;;;-0.10;99.90;;;;;;4975871;28;20499;-57
2022/01/21 03:01:35;;;;;;;13.37;1.17;;;0.00;99.90;;;;;;4976224;28;20466;-54
2022/01/21 03:04:03;;;;;;;1.07;0.60;;;0.00;99.90;;;;;;4975784;28;20462;-53
2022/01/21 03:06:30;;;;;;;0.80;0.60;;;0.00;99.90;;;;;;4975906;28;20448;-51
2022/01/21 03:09:00;;;;;;;0.90;0.70;;;0.00;99.90;;;;;;4976187;28;20463;-53
2022/01/21 03:11:27;;;;;;;1.00;0.80;;;0.00;99.90;;;;;;4976217;28;20452;-52
2022/01/21 03:13:58;;;;;;;0.90;0.73;;;0.00;99.90;;;;;;4976514;28;20447;-55
2022/01/21 03:16:27;;;;;;;1.67;0.87;;;-0.10;99.90;;;;;;4976193;28;20494;-48
2022/01/21 03:18:54;;;;;;;1.40;0.70;;;-0.10;99.90;;;;;;4976498;28;20448;-53
2022/01/21 03:21:21;;;;;;;1.00;0.70;;;-0.10;99.90;;;;;;4976080;28;20486;-53
2022/01/21 03:23:51;;;;;;;7.67;0.60;;;-0.20;99.90;;;;;;4976233;28;20461;-51
2022/01/21 03:26:22;;;;;;;0.90;0.60;;;-0.20;99.90;;;;;;4976416;28;20450;-54
2022/01/21 03:28:50;;;;;;;17.23;1.30;;;-0.20;99.90;;;;;;4975975;28;20479;-54
2022/01/21 03:31:20;;;;;;;7.70;1.00;;;-0.20;99.90;;;;;;4976046;28;20527;-54
2022/01/21 03:33:46;;;;;;;1.00;0.80;;;-0.20;99.90;;;;;;4975978;28;20479;-52
2022/01/21 03:36:16;;;;;;;0.80;0.50;;;-0.30;99.90;;;;;;4975888;28;20879;-54
2022/01/21 03:38:43;;;;;;;1.10;0.60;;;-0.40;99.90;;;;;;4976282;28;20479;-56
2022/01/21 03:41:10;;;;;;;1.10;0.60;;;-0.30;99.90;;;;;;4976636;28;20479;-55
2022/01/21 03:43:39;;;;;;;2.63;0.60;;;-0.30;99.90;;;;;;4979687;28;20482;-53
2022/01/21 03:46:06;;;;;;;0.80;0.57;;;-0.30;99.90;;;;;;4979228;28;20468;-52
2022/01/21 03:48:33;;;;;;;0.80;0.50;;;-0.30;99.90;;;;;;4980048;28;20432;-55
2022/01/21 03:51:00;;;;;;;2.20;0.70;;;-0.40;99.90;;;;;;4980123;28;20457;-51
2022/01/21 03:53:27;;;;;;;0.87;0.50;;;-0.30;99.90;;;;;;4979357;28;20510;-54
2022/01/21 03:55:54;;;;;;;9.80;1.10;;;-0.40;99.90;;;;;;4979884;28;20423;-54
2022/01/21 03:58:21;;;;;;;0.80;0.60;;;-0.40;99.90;;;;;;4979770;28;20503;-53
2022/01/21 04:00:52;;;;;;;0.93;0.70;;;-0.40;99.90;;;;;;4980607;28;20554;-56
2022/01/21 04:03:20;;;;;;;1.10;0.70;;;-0.40;99.90;;;;;;4980017;28;20472;-56
2022/01/21 04:05:47;;;;;;;0.80;0.60;;;-0.40;99.90;;;;;;4980004;28;20473;-54
2022/01/21 04:08:14;;;;;;;0.90;0.60;;;-0.50;99.90;;;;;;4980299;28;20447;-51
2022/01/21 04:10:42;;;;;;;0.80;0.60;;;-0.50;99.90;;;;;;4979825;28;20485;-52
2022/01/21 04:13:14;;;;;;;1.40;1.03;;;-0.60;99.90;;;;;;4979757;28;20512;-52
2022/01/21 04:15:43;;;;;;;1.00;0.60;;;-0.60;99.90;;;;;;4980083;28;20449;-55
2022/01/21 04:18:13;;;;;;;0.80;0.50;;;-0.70;99.90;;;;;;4980548;28;20488;-50
2022/01/21 04:20:46;;;;;;;1.33;0.97;;;-0.70;99.90;;;;;;4980099;28;20435;-54
2022/01/21 04:23:12;;;;;;;1.97;1.13;;;-0.80;99.90;;;;;;4980200;28;20510;-55
2022/01/21 04:25:39;;;;;;;1.33;1.20;;;-0.80;99.90;;;;;;4980575;28;20452;-55
2022/01/21 04:28:09;;;;;;;0.80;0.57;;;-0.80;99.90;;;;;;4980593;28;20953;-59
2022/01/21 04:30:36;;;;;;;0.80;0.50;;;-0.90;99.90;;;;;;4980853;28;20475;-51
2022/01/21 04:33:03;;;;;;;1.20;0.87;;;-0.90;99.90;;;;;;4980134;28;20470;-55
2022/01/21 04:35:32;;;;;;;1.30;0.70;;;-0.90;99.90;;;;;;4979895;28;20440;-54
2022/01/21 04:38:02;;;;;;;0.80;0.50;;;-0.90;99.90;;;;;;4979601;28;20471;-63
2022/01/21 04:40:32;;;;;;;2.70;1.90;;;-0.80;99.90;;;;;;4980036;28;20437;-52
2022/01/21 04:48:30;;;;;;;0.80;0.50;;;-0.90;99.90;;;;;;4979283;29;20440;-55
2022/01/21 04:51:12;;;;;;;1.60;0.90;;;-1.00;99.90;;;;;;4979730;28;20435;-52
2022/01/21 04:53:40;;;;;;;2.70;0.60;;;-1.00;99.90;;;;;;4978775;28;20538;-54
2022/01/21 04:56:08;;;;;;;2.33;1.83;;;-0.90;99.90;;;;;;4978901;28;20447;-56
2022/01/21 04:58:40;;;;;;;4.33;1.87;;;-1.00;99.90;;;;;;4979298;28;20444;-57
2022/01/21 05:01:07;;;;;;;1.40;0.77;;;-1.00;99.90;;;;;;4979299;28;20448;-54
2022/01/21 05:03:36;;;;;;;8.53;1.17;;;-1.00;99.90;;;;;;4978403;28;20511;-54
2022/01/21 05:06:04;;;;;;;0.83;0.57;;;-0.90;99.90;;;;;;4978409;28;20511;-55
2022/01/21 05:08:39;;;;;;;0.83;0.57;;;-0.90;99.90;;;;;;4978462;28;20495;-58
2022/01/21 05:11:06;;;;;;;1.20;0.90;;;-0.80;99.90;;;;;;4978629;28;20456;-52
2022/01/21 05:13:38;;;;;;;1.07;0.63;;;-0.80;99.90;;;;;;4978881;28;20432;-56
2022/01/21 05:16:12;;;;;;;0.90;0.70;;;-0.80;99.90;;;;;;4978586;28;20432;-56
2022/01/21 05:18:38;;;;;;;2.40;0.83;;;-0.80;99.90;;;;;;4978336;28;20538;-54
2022/01/21 05:21:08;;;;;;;1.73;1.53;;;-0.80;99.90;;;;;;4978978;28;20447;-55
2022/01/21 05:23:35;;;;;;;0.80;0.50;;;-0.90;99.90;;;;;;4978190;28;20487;-54
2022/01/21 05:26:02;;;;;;;0.80;0.50;;;-1.00;99.90;;;;;;4978430;28;20441;-55
2022/01/21 05:28:31;;;;;;;2.30;1.00;;;-1.00;99.90;;;;;;4978229;28;20462;-53
2022/01/21 05:30:58;;;;;;;0.80;0.53;;;-1.00;99.90;;;;;;4978155;28;20489;-56
2022/01/21 05:33:26;;;;;;;1.00;0.60;;;-1.00;99.90;;;;;;4978147;28;20906;-56
2022/01/21 05:35:53;;;;;;;0.80;0.50;;;-1.00;99.90;;;;;;4977583;28;20478;-54
2022/01/21 05:38:21;;;;;;;5.33;0.70;;;-1.00;99.90;;;;;;4978206;28;20446;-56
2022/01/21 05:40:47;;;;;;;0.80;0.50;;;-1.00;99.90;;;;;;4978447;28;20477;-57
2022/01/21 05:43:16;;;;;;;0.80;0.60;;;-1.00;99.90;;;;;;4978178;28;20526;-53
2022/01/21 05:48:27;;;;;;;0.80;0.60;;;-1.10;99.90;;;;;;4978060;29;20513;-55
2022/01/21 05:50:56;;;;;;;0.80;0.50;;;-1.10;99.90;;;;;;4978621;28;20447;-55
2022/01/21 05:53:24;;;;;;;0.80;0.50;;;-1.10;99.90;;;;;;4977949;28;20462;-55
2022/01/21 05:55:50;;;;;;;0.80;0.67;;;-1.10;99.90;;;;;;4978056;28;20511;-54
2022/01/21 05:58:17;;;;;;;0.90;0.80;;;-1.20;99.90;;;;;;4978177;28;20475;-58
2022/01/21 06:00:44;;;;;;;1.10;0.83;;;-1.20;99.90;;;;;;4977390;28;20498;-57
2022/01/21 06:03:13;;;;;;;14.13;1.33;;;-1.20;99.90;;;;;;4977229;28;20480;-55
2022/01/21 06:05:42;;;;;;;0.90;0.60;;;-1.20;99.90;;;;;;4976810;28;20449;-55
2022/01/21 06:08:08;;;;;;;0.80;0.60;;;-1.20;99.90;;;;;;4978198;28;20446;-52
2022/01/21 06:10:38;;;;;;;0.80;0.50;;;-1.20;99.90;;;;;;4977230;28;20459;-54
2022/01/21 06:13:05;;;;;;;0.80;0.60;;;-1.30;99.90;;;;;;4977692;28;20463;-54
2022/01/21 06:15:31;;;;;;;2.70;0.77;;;-1.30;99.90;;;;;;4977917;28;20458;-56
2022/01/21 06:17:58;;;;;;;1.40;1.10;;;-1.30;99.90;;;;;;4977158;28;20484;-54
2022/01/21 06:20:25;;;;;;;0.90;0.60;;;-1.40;99.90;;;;;;4977451;28;20444;-56
2022/01/21 06:22:51;;;;;;;1.53;1.17;;;-1.40;99.90;;;;;;4977477;28;20476;-54
2022/01/21 06:25:18;;;;;;;6.40;0.83;;;-1.40;99.90;;;;;;4977063;28;20505;-56
2022/01/21 06:27:48;;;;;;;1.20;1.10;;;-1.30;99.90;;;;;;4977319;28;20447;-56
2022/01/21 06:30:15;;;;;;;1.10;0.90;;;-1.30;99.90;;;;;;4977388;28;20447;-51
2022/01/21 06:32:42;;;;;;;1.30;0.73;;;-1.20;99.90;;;;;;4977447;28;20453;-53
2022/01/21 06:35:09;;;;;;;0.80;0.50;;;-1.30;99.90;;;;;;4977422;28;20451;-53
2022/01/21 06:37:42;;;;;;;1.30;0.80;;;-1.30;99.90;;;;;;4976931;28;20472;-56
2022/01/21 06:40:10;;;;;;;7.13;1.03;;;-1.30;99.90;;;;;;4977021;28;20472;-56
2022/01/21 06:42:37;;;;;;;1.87;0.63;;;-1.30;99.90;;;;;;4976753;28;20484;-53
2022/01/21 06:45:06;;;;;;;0.90;0.60;;;-1.30;99.90;;;;;;4976707;28;20451;-54
2022/01/21 06:47:33;;;;;;;2.07;1.03;;;-1.20;99.90;;;;;;4976749;28;20514;-53
2022/01/21 06:50:02;;;;;;;1.67;0.80;;;-1.20;99.90;;;;;;4976889;28;20453;-55
2022/01/21 06:52:30;;;;;;;1.00;0.57;;;-1.20;99.90;;;;;;4976746;28;20456;-55
2022/01/21 06:54:59;;;;;;;1.27;0.60;;;-1.20;99.90;;;;;;4977302;28;20562;-54
2022/01/21 06:57:26;;;;;;;1.97;1.00;;;-1.30;99.90;;;;;;4976958;28;20443;-53
2022/01/21 06:59:53;;;;;;;0.90;0.63;;;-1.30;99.90;;;;;;4977230;28;20442;-54
2022/01/21 07:02:26;;;;;;;0.80;0.50;;;-1.30;99.90;;;;;;4976224;28;20497;-54
2022/01/21 07:04:52;;;;;;;2.90;1.20;;;-1.30;99.90;;;;;;4976661;28;20428;-55
2022/01/21 07:07:19;;;;;;;0.80;0.50;;;-1.30;99.90;;;;;;4976429;28;20582;-57
2022/01/21 07:09:47;;;;;;;0.80;0.50;;;-1.30;99.90;;;;;;4977247;28;20487;-56
2022/01/21 07:12:14;;;;;;;5.03;2.30;;;-1.30;99.90;;;;;;4976905;28;20521;-54
2022/01/21 07:14:41;;;;;;;2.90;0.70;;;-1.30;99.90;;;;;;4976587;28;20482;-57
2022/01/21 07:17:08;;;;;;;0.80;0.57;;;-1.30;99.90;;;;;;4980725;28;20518;-51
2022/01/21 07:19:36;;;;;;;3.33;2.40;;;-1.30;99.90;;;;;;4980452;28;20475;-51
2022/01/21 07:22:03;;;;;;;4.00;1.07;;;-1.20;99.90;;;;;;4980653;28;20443;-54
2022/01/21 07:24:30;;;;;;;1.67;0.70;;;-1.20;99.90;;;;;;4981113;28;20492;-51
2022/01/21 07:26:57;;;;;;;1.00;0.80;;;-1.20;99.90;;;;;;4980982;28;20435;-54
2022/01/21 07:29:23;;;;;;;0.97;0.73;;;-1.10;99.90;;;;;;4980352;28;20483;-52
2022/01/21 07:31:57;;;;;;;1.67;0.60;;;-1.10;99.90;;;;;;4980922;28;20471;-53
2022/01/21 07:34:26;;;;;;;0.90;0.70;;;-1.10;99.90;;;;;;4981398;28;20432;-60
2022/01/21 07:36:55;;;;;;;0.80;0.50;;;-1.20;99.90;;;;;;4980849;28;20457;-55
2022/01/21 07:39:22;;;;;;;3.27;0.70;;;-1.20;99.90;;;;;;4980796;28;20479;-59
2022/01/21 07:41:49;;;;;;;1.10;0.70;;;-1.10;99.90;;;;;;4979919;29;20479;-52
2022/01/21 07:44:19;;;;;;;1.00;0.70;;;-1.10;99.90;;;;;;4980111;28;20483;-54
2022/01/21 07:46:47;;;;;;;0.80;0.50;;;-1.00;99.90;;;;;;4980734;28;20466;-52
2022/01/21 07:49:14;;;;;;;0.80;0.50;;;-1.00;99.90;;;;;;4981130;28;20526;-52
2022/01/21 07:51:42;;;;;;;1.10;0.90;;;-1.00;99.90;;;;;;4981225;28;20439;-50
2022/01/21 07:54:11;;;;;;;4.50;1.67;;;-0.90;99.90;;;;;;4980427;28;20437;-50
2022/01/21 07:56:38;;;;;;;4.27;0.87;;;-0.90;99.90;;;;;;4979950;28;20474;-53
2022/01/21 07:59:08;;;;;;;5.80;1.33;;;-0.90;99.90;;;;;;4979490;28;20479;-51
2022/01/21 08:01:35;;;;;;;1.50;0.77;;;-0.80;99.90;;;;;;4968092;28;20471;-51
2022/01/21 08:04:04;;;;;;;1.77;0.80;;;-0.80;99.90;;;;;;4965601;28;20482;-52
2022/01/21 08:06:35;;;;;;;0.90;0.60;;;-0.80;99.90;;;;;;4959915;28;20437;-52
2022/01/21 08:09:02;;;;;;;0.80;0.67;;;-0.80;99.90;;;;;;4959786;29;20472;-49
2022/01/21 08:11:29;;;;;;;0.90;0.63;;;-0.90;99.90;;;;;;4978824;29;20447;-50
2022/01/21 08:13:56;;;;;;;1.00;0.70;;;-0.80;99.90;;;;;;4974091;28;20445;-54
2022/01/21 08:16:23;;;;;;;1.67;1.57;;;-0.80;99.90;;;;;;4971560;29;20455;-53
2022/01/21 08:18:50;;;;;;;0.90;0.60;;;-0.80;99.90;;;;;;4978870;28;20538;-53
2022/01/21 08:21:19;;;;;;;2.03;1.30;;;-0.70;99.90;;;;;;4978989;28;20427;-53
2022/01/21 08:23:47;;;;;;;7.70;1.27;;;-0.70;99.90;;;;;;4966081;29;20479;-51
2022/01/21 08:26:14;;;;;;;3.17;1.83;;;-0.70;99.90;;;;;;4970815;28;20842;-51
2022/01/21 08:28:42;;;;;;;0.80;0.60;;;-0.60;99.90;;;;;;4967083;28;20471;-55
2022/01/21 08:31:11;;;;;;;9.23;0.83;;;-0.60;99.90;;;;;;4959588;29;20477;-55
2022/01/21 08:33:38;;;;;;;0.83;0.57;;;-0.60;99.90;;;;;;4959057;29;20461;-55
2022/01/21 08:36:07;;;;;;;0.90;0.70;;;-0.50;99.90;;;;;;4959289;29;20448;-50
2022/01/21 08:38:36;;;;;;;0.80;0.50;;;-0.50;99.90;;;;;;4959255;29;20472;-49
2022/01/21 08:41:03;;;;;;;0.90;0.70;;;-0.50;99.90;;;;;;4960951;29;20446;-50
2022/01/21 08:43:32;;;;;;;0.83;0.60;;;-0.40;99.90;;;;;;4966253;29;20543;-48
2022/01/21 08:46:06;;;;;;;8.77;1.37;;;-0.40;99.90;;;;;;4971127;29;20456;-52
2022/01/21 08:48:32;;;;;;;1.10;0.70;;;-0.40;99.90;;;;;;4978143;28;20438;-50
2022/01/21 08:51:02;;;;;;;0.90;0.70;;;-0.40;99.90;;;;;;4978020;28;20460;-54
2022/01/21 08:53:36;;;;;;;25.17;1.63;;;-0.30;99.90;;;;;;4977905;28;20526;-50
2022/01/21 08:56:06;;;;;;;0.90;0.70;;;-0.30;99.90;;;;;;4977764;28;20455;-56
2022/01/21 08:58:33;;;;;;;1.00;0.83;;;-0.20;99.90;;;;;;4978213;28;20475;-54
2022/01/21 09:01:01;;;;;;;1.33;1.10;;;-0.20;99.90;;;;;;4977541;28;20443;-54
2022/01/21 09:03:28;;;;;;;2.00;0.80;;;-0.10;99.90;;;;;;4978197;28;20490;-50
2022/01/21 09:05:55;;;;;;;6.83;1.23;;;-0.10;99.90;;;;;;4979052;28;20441;-53
2022/01/21 09:08:24;;;;;;;4.50;0.97;;;-0.10;99.90;;;;;;4978716;28;20529;-54
2022/01/21 09:10:51;;;;;;;2.60;0.80;;;0.00;99.90;;;;;;4978643;28;20466;-49
2022/01/21 09:13:18;;;;;;;3.90;0.70;;;0.00;99.90;;;;;;4979048;28;20444;-49
2022/01/21 09:15:45;;;;;;;18.37;1.00;;;0.10;99.90;;;;;;4978818;28;20466;-52
2022/01/21 09:18:18;;;;;;;1.70;1.00;;;0.10;99.90;;;;;;4978943;28;20455;-46
2022/01/21 09:20:45;;;;;;;0.87;0.63;;;0.10;99.90;;;;;;4978456;28;20514;-47
2022/01/21 09:23:11;;;;;;;2.07;1.40;;;0.20;99.90;;;;;;4978032;28;20489;-51
2022/01/21 09:25:39;;;;;;;4.90;1.50;;;0.40;99.90;;;;;;4979196;28;20475;-51
2022/01/21 09:28:06;;;;;;;1.87;1.63;;;0.50;99.90;;;;;;4979063;28;20468;-49
2022/01/21 09:30:33;;;;;;;1.30;0.80;;;0.60;99.90;;;;;;4978952;28;20456;-52
2022/01/21 09:33:00;;;;;;;2.73;1.10;;;0.80;99.90;;;;;;4978426;28;20515;-55
2022/01/21 09:35:28;;;;;;;2.40;1.47;;;0.80;99.90;;;;;;4978318;28;20541;-51
2022/01/21 09:37:55;;;;;;;0.90;0.60;;;0.80;99.90;;;;;;4978793;28;20456;-53
2022/01/21 09:40:31;;;;;;;1.73;1.13;;;0.90;99.90;;;;;;4978380;28;20543;-54
2022/01/21 09:42:59;;;;;;;2.60;2.10;;;1.00;99.90;;;;;;4977093;28;20427;-55
2022/01/21 09:45:28;;;;;;;1.97;1.10;;;1.10;99.90;;;;;;4977417;28;20470;-48
2022/01/21 09:47:57;;;;;;;1.60;1.50;;;1.50;99.90;;;;;;4977698;28;20476;-51
2022/01/21 09:50:24;;;;;;;0.80;0.50;;;2.40;99.90;;;;;;4977528;28;20448;-53
2022/01/21 09:52:54;;;;;;;1.23;0.80;;;3.10;99.90;;;;;;4976375;28;20456;-56
2022/01/21 09:55:24;;;;;;;2.90;0.70;;;3.60;99.90;;;;;;4977213;28;20433;-56
2022/01/21 09:57:53;;;;;;;3.17;1.43;;;4.50;99.90;;;;;;4978004;28;20472;-56
2022/01/21 10:00:22;;;;;;;2.07;1.10;;;4.10;99.90;;;;;;4978279;28;20471;-59
2022/01/21 10:02:54;;;;;;;1.73;1.10;;;4.20;99.90;;;;;;4976418;28;20456;-54
2022/01/21 10:05:21;;;;;;;1.00;0.80;;;4.50;99.90;;;;;;4976739;28;20523;-58
2022/01/21 10:07:54;;;;;;;6.40;1.10;;;4.80;99.90;;;;;;4977385;28;20455;-56
2022/01/21 10:10:23;;;;;;;10.63;1.87;;;5.20;99.90;;;;;;4976948;28;20479;-57
2022/01/21 10:12:50;;;;;;;5.33;1.37;;;5.50;99.90;;;;;;4977479;28;20437;-58
2022/01/21 10:15:18;;;;;;;2.30;1.57;;;5.40;99.90;;;;;;4977802;28;20449;-55
2022/01/21 10:17:59;;;;;;;5.90;1.17;;;5.50;99.90;;;;;;4977001;28;20461;-59
2022/01/21 10:20:26;;;;;;;6.00;1.73;;;5.60;99.90;;;;;;4976989;28;20429;-59
2022/01/21 10:23:03;;;;;;;3.13;1.00;;;5.70;99.90;;;;;;4977282;28;20472;-55
2022/01/21 10:25:32;;;;;;;2.13;1.20;;;5.70;99.90;;;;;;4976592;28;20474;-56
2022/01/21 10:28:19;;;;;;;2.03;1.00;;;6.20;99.90;;;;;;4976515;28;20436;-56
2022/01/21 10:30:48;;;;;;;1.70;1.10;;;6.70;99.90;;;;;;4976191;28;20449;-58
2022/01/21 10:33:19;;;;;;;2.73;1.10;;;7.20;99.90;;;;;;4975008;28;20456;-60
2022/01/21 10:35:53;;;;;;;2.70;1.80;;;8.10;99.90;;;;;;4973759;29;20479;-58
2022/01/21 10:38:28;;;;;;;2.20;1.47;;;9.10;97.80;;;;;;4976184;28;20431;-56
2022/01/21 10:41:03;;;;;;;2.60;0.97;;;9.40;92.60;;;;;;4965782;28;20471;-56
2022/01/21 10:43:33;;;;;;;9.30;2.23;;;9.50;91.80;;;;;;4956264;29;20484;-58
2022/01/21 10:46:01;;;;;;;2.80;1.37;;;9.60;90.90;;;;;;4956877;29;20456;-57
2022/01/21 10:48:29;;;;;;;3.13;1.20;;;9.70;86.80;;;;;;4964440;29;20454;-57
2022/01/21 10:51:16;;;;;;;5.57;1.60;;;9.50;85.30;;;;;;4974708;28;20468;-53
2022/01/21 10:53:44;;;;;;;1.50;1.07;;;9.30;85.50;;;;;;4974706;28;20468;-51
2022/01/21 10:56:13;;;;;;;5.03;1.43;;;8.90;85.70;;;;;;4974906;28;20451;-59
2022/01/21 10:58:41;;;;;;;1.20;1.03;;;8.60;86.90;;;;;;4975285;28;20431;-55
2022/01/21 11:01:12;;;;;;;3.00;0.80;;;8.00;89.10;;;;;;4975727;28;20436;-59
2022/01/21 11:03:56;;;;;;;3.20;1.30;;;7.70;91.10;;;;;;4975553;28;20458;-55
2022/01/21 11:06:26;;;;;;;3.43;1.67;;;7.20;91.90;;;;;;4975391;28;20472;-55
2022/01/21 11:09:15;;;;;;;3.63;1.63;;;6.70;93.60;;;;;;4975686;28;20460;-55
2022/01/21 11:11:43;;;;;;;6.80;0.97;;;6.10;95.40;;;;;;4966791;28;20543;-50
2022/01/21 11:14:14;;;;;;;3.57;1.03;;;5.50;98.20;;;;;;4955572;29;20441;-55
2022/01/21 11:16:45;;;;;;;1.30;1.00;;;5.20;99.90;;;;;;4955867;29;20457;-58
2022/01/21 11:19:17;;;;;;;3.23;1.10;;;4.90;99.90;;;;;;4956789;29;20441;-54
2022/01/21 11:21:56;;;;;;;4.13;1.07;;;4.40;99.90;;;;;;4956741;29;20430;-57
2022/01/21 11:24:32;;;;;;;1.17;0.87;;;3.90;99.90;;;;;;4956434;29;20556;-55
2022/01/21 11:27:10;;;;;;;4.40;1.23;;;3.70;99.90;;;;;;4957052;29;20472;-57
2022/01/21 11:29:40;;;;;;;3.10;1.37;;;3.60;99.90;;;;;;4956854;29;20432;-55
2022/01/21 11:32:07;;;;;;;0.97;0.73;;;3.50;99.90;;;;;;4957034;29;20466;-59
2022/01/21 11:34:35;;;;;;;11.23;1.27;;;3.40;99.90;;;;;;4956843;29;20480;-51
2022/01/21 11:37:04;;;;;;;2.33;1.10;;;3.30;99.90;;;;;;4956247;29;20477;-59
2022/01/21 11:39:34;;;;;;;3.80;1.73;;;3.20;99.90;;;;;;4956170;29;20468;-55
2022/01/21 11:42:03;;;;;;;3.80;1.10;;;3.10;99.90;;;;;;4956190;29;20441;-59
2022/01/21 11:44:31;;;;;;;3.80;1.37;;;3.00;99.90;;;;;;4956619;29;20480;-57
2022/01/21 11:47:13;;;;;;;1.50;1.07;;;3.00;99.90;;;;;;4956618;29;20437;-55
2022/01/21 11:49:42;;;;;;;5.27;1.10;;;3.00;99.90;;;;;;4956018;29;20473;-55
2022/01/21 11:52:12;;;;;;;1.33;0.90;;;3.00;99.90;;;;;;4956096;29;20465;-58
2022/01/21 11:54:40;;;;;;;1.50;1.40;;;2.90;99.90;;;;;;4955618;29;20496;-54
2022/01/21 11:57:08;;;;;;;1.10;0.90;;;2.90;99.90;;;;;;4956153;29;20480;-58
2022/01/21 11:59:46;;;;;;;1.63;0.97;;;3.00;99.90;;;;;;4955613;29;20457;-55
2022/01/21 12:02:24;;;;;;;4.90;1.33;;;3.00;99.90;;;;;;4955935;29;20433;-57
2022/01/21 12:04:53;;;;;;;3.93;1.70;;;3.10;99.90;;;;;;4959207;29;20480;-54
2022/01/21 12:07:57;;;;;;;1.77;0.80;;;3.10;99.90;;;;;;4959245;29;20453;-57
2022/01/21 12:10:42;;;;;;;1.47;0.83;;;3.30;99.90;;;;;;4959528;29;20440;-57
2022/01/21 12:13:14;;;;;;;1.30;0.90;;;3.10;99.90;;;;;;4959941;29;20508;-56
2022/01/21 12:19:09;;;;;;;1.30;0.77;;;3.10;99.90;;;;;;4960402;29;20406;-56
2022/01/21 12:21:41;;;;;;;1.10;0.90;;;3.20;99.90;;;;;;4960158;29;20477;-57
2022/01/21 12:24:09;;;;;;;2.83;1.53;;;3.30;99.90;;;;;;4960470;29;20472;-57
2022/01/21 12:26:56;;;;;;;1.90;1.30;;;3.30;99.90;;;;;;4959161;29;20497;-57
2022/01/21 12:29:29;;;;;;;3.27;0.80;;;3.30;99.90;;;;;;4959710;29;20456;-57
2022/01/21 12:32:05;;;;;;;1.30;0.80;;;3.30;99.90;;;;;;4959580;29;20476;-56
2022/01/21 12:35:07;;;;;;;1.10;0.80;;;3.30;99.90;;;;;;4959542;29;20428;-52
2022/01/21 12:38:04;;;;;;;1.63;0.80;;;3.20;99.90;;;;;;4959563;29;20494;-55
2022/01/21 12:40:36;;;;;;;1.20;0.80;;;3.20;99.90;;;;;;4960068;29;20464;-54
2022/01/21 12:43:36;;;;;;;4.37;0.90;;;3.20;99.90;;;;;;4959239;29;20492;-57
2022/01/21 12:46:09;;;;;;;1.93;0.77;;;3.10;99.90;;;;;;4958900;29;20472;-55
2022/01/21 12:48:37;;;;;;;3.33;2.07;;;3.10;99.90;;;;;;4958738;29;20445;-50
2022/01/21 12:51:16;;;;;;;1.87;0.93;;;3.20;99.90;;;;;;4958792;29;20497;-54
2022/01/21 12:56:42;;;;;;;2.60;0.97;;;3.30;99.90;;;;;;4959298;29;20455;-54
2022/01/21 12:59:20;;;;;;;2.23;1.00;;;3.40;99.90;;;;;;4959222;29;20446;-56
2022/01/21 13:01:49;;;;;;;4.10;1.13;;;3.50;99.90;;;;;;4959187;29;20510;-59
2022/01/21 13:04:28;;;;;;;4.13;1.90;;;3.60;99.90;;;;;;4958677;29;20520;-57
2022/01/21 13:06:59;;;;;;;1.23;0.80;;;3.70;99.90;;;;;;4959998;29;20437;-59
2022/01/21 13:10:01;;;;;;;0.90;0.60;;;3.70;99.90;;;;;;4960041;29;20496;-57
2022/01/21 13:12:57;;;;;;;1.00;0.83;;;3.60;99.90;;;;;;4959799;29;20453;-60
2022/01/21 13:15:24;;;;;;;3.00;1.27;;;3.50;99.90;;;;;;4959707;29;20476;-60
2022/01/21 13:18:00;;;;;;;1.10;0.60;;;3.50;99.90;;;;;;4959637;29;20452;-63
2022/01/21 13:20:31;;;;;;;7.00;3.80;;;3.60;99.90;;;;;;4959739;29;20481;-56
2022/01/21 13:23:02;;;;;;;1.30;1.10;;;3.60;99.90;;;;;;4959596;29;20430;-55
2022/01/21 13:25:31;;;;;;;1.60;1.13;;;3.50;99.90;;;;;;4959550;29;20503;-57
2022/01/21 13:28:03;;;;;;;4.50;0.83;;;3.50;99.90;;;;;;4958745;29;20528;-55
2022/01/21 13:30:32;;;;;;;5.57;1.40;;;3.50;99.90;;;;;;4958218;29;20438;-54
2022/01/21 13:33:03;;;;;;;3.13;0.90;;;3.50;99.90;;;;;;4958407;29;20529;-57
2022/01/21 13:35:30;;;;;;;4.50;1.03;;;3.50;99.90;;;;;;4957978;29;20458;-54
2022/01/21 13:38:08;;;;;;;2.30;1.83;;;3.50;99.90;;;;;;4954216;29;20453;-56
2022/01/21 13:40:41;;;;;;;1.77;0.90;;;3.40;99.90;;;;;;4948169;29;20532;-60
2022/01/21 13:43:15;;;;;;;2.30;1.33;;;3.40;99.90;;;;;;4946104;29;20540;-60
2022/01/21 13:45:44;;;;;;;2.27;0.90;;;3.40;99.90;;;;;;4946734;29;20552;-58
2022/01/21 13:48:12;;;;;;;5.03;0.77;;;3.40;99.90;;;;;;4948653;29;20433;-58
2022/01/21 13:50:45;;;;;;;1.33;0.83;;;3.40;99.90;;;;;;4947748;29;20444;-57
2022/01/21 13:53:12;;;;;;;1.30;0.90;;;3.40;99.90;;;;;;4947835;29;20944;-57